Time;durP1;ratioP1;P1;durP2;ratioP2;P2;SDS_P1;SDS_P2;PMS_P1;PMS_P2;Temp;Humidity;BMP_temperature;BMP_pressure;BME280_temperature;BME280_humidity;BME280_pressure;Samples;Min_cycle;Max_cycle;Signal;HPM_P1;HPM_P2
2022/12/15 00:39:40;;;;;;;;;;;;;;;-1.47;100.00;94324.53;10522014;28;1986;-68
2022/12/15 00:44:43;;;;;;;;;;;;;;;-1.58;100.00;94328.03;10522690;28;2101;-68
2022/12/15 01:21:50;;;;;;;;;;;;;;;-1.57;100.00;94350.69;10502582;28;1966;-74
2022/12/15 01:26:53;;;;;;;;;;;;;;;-1.50;100.00;94357.44;10530383;28;1990;-69
2022/12/15 01:31:56;;;;;;;;;;;;;;;-1.59;100.00;94358.00;10528857;28;1988;-70
2022/12/15 01:36:59;;;;;;;;;;;;;;;-1.67;100.00;94359.97;10527056;28;2000;-69
2022/12/15 01:42:02;;;;;;;;;;;;;;;-1.70;100.00;94373.63;10533469;28;2051;-69
2022/12/15 01:47:05;;;;;;;;;;;;;;;-1.61;100.00;94387.25;10529365;28;1970;-69
2022/12/15 01:52:08;;;;;;;;;;;;;;;-1.56;100.00;94378.66;10512632;28;2062;-70
2022/12/15 01:57:12;;;;;;;;;;;;;;;-1.77;100.00;94372.97;10534649;28;1404;-69
2022/12/15 02:02:16;;;;;;;;;;;;;;;-1.86;100.00;94376.97;10536408;28;1629;-68
2022/12/15 02:07:20;;;;;;;;;;;;;;;-1.88;100.00;94380.88;10524760;28;1971;-69
2022/12/15 02:12:23;;;;;;;;;;;;;;;-1.77;100.00;94385.34;10526846;28;1930;-69
2022/12/15 02:17:26;;;;;;;;;;;;;;;-2.02;100.00;94381.09;10519486;28;1862;-69
2022/12/15 02:22:29;;;;;;;;;;;;;;;-1.97;100.00;94393.59;10521510;28;1883;-68
2022/12/15 02:27:33;;;;;;;;;;;;;;;-1.87;100.00;94403.53;10530478;28;1689;-68
2022/12/15 02:32:36;;;;;;;;;;;;;;;-1.90;100.00;94412.72;10529437;28;1973;-69
2022/12/15 02:37:39;;;;;;;;;;;;;;;-1.98;100.00;94423.56;10523722;28;1934;-68
2022/12/15 02:42:43;;;;;;;;;;;;;;;-2.03;100.00;94436.63;10523080;28;1974;-68
2022/12/15 02:47:46;;;;;;;;;;;;;;;-2.02;100.00;94435.59;10526539;28;1923;-71
2022/12/15 02:52:50;;;;;;;;;;;;;;;-1.98;100.00;94428.84;10522658;28;2258;-70
2022/12/15 02:57:53;;;;;;;;;;;;;;;-2.25;100.00;94444.25;10522305;28;1925;-69
2022/12/15 03:02:56;;;;;;;;;;;;;;;-2.14;100.00;94442.69;10517169;28;1958;-70
2022/12/15 03:08:00;;;;;;;;;;;;;;;-2.22;100.00;94452.53;10524401;28;1840;-70
2022/12/15 03:13:03;;;;;;;;;;;;;;;-2.22;100.00;94449.09;10513652;28;2123;-69
2022/12/15 03:18:06;;;;;;;;;;;;;;;-2.33;100.00;94455.94;10518061;28;1927;-68
2022/12/15 03:23:09;;;;;;;;;;;;;;;-2.34;100.00;94446.44;10522740;28;1903;-69
2022/12/15 03:28:12;;;;;;;;;;;;;;;-2.24;100.00;94456.38;10522062;28;1887;-70
2022/12/15 03:33:15;;;;;;;;;;;;;;;-2.28;100.00;94461.31;10514642;28;1976;-70
2022/12/15 03:38:19;;;;;;;;;;;;;;;-2.37;100.00;94467.91;10517797;28;2299;-69
2022/12/15 03:43:23;;;;;;;;;;;;;;;-2.37;100.00;94469.75;10503854;28;1985;-68
2022/12/15 03:48:28;;;;;;;;;;;;;;;-2.44;100.00;94483.00;10520185;28;1990;-70
2022/12/15 03:53:32;;;;;;;;;;;;;;;-2.31;100.00;94471.47;10517335;28;1922;-76
2022/12/15 03:58:35;;;;;;;;;;;;;;;-2.33;100.00;94479.63;10521241;28;1970;-73
2022/12/15 04:03:38;;;;;;;;;;;;;;;-2.39;100.00;94491.03;10522853;28;1966;-71
2022/12/15 04:08:42;;;;;;;;;;;;;;;-2.44;100.00;94493.53;10520256;28;1856;-70
2022/12/15 04:13:45;;;;;;;;;;;;;;;-2.30;100.00;94500.19;10522254;28;1919;-67
2022/12/15 04:20:07;;;;;;;;;;;;;;;-2.50;100.00;94511.00;10506349;28;2031;-73
2022/12/15 05:33:48;;;;;;;;;;;;;;;-2.37;100.00;94552.13;10518734;28;2109;-71
2022/12/15 05:38:52;;;;;;;;;;;;;;;-2.55;100.00;94558.22;10519877;28;1895;-68
2022/12/15 05:43:55;;;;;;;;;;;;;;;-2.77;100.00;94557.09;10520858;28;1914;-71
2022/12/15 05:48:58;;;;;;;;;;;;;;;-2.85;100.00;94545.06;10525250;28;1986;-69
2022/12/15 05:54:01;;;;;;;;;;;;;;;-2.69;100.00;94553.38;10537490;28;1989;-69
2022/12/15 05:59:04;;;;;;;;;;;;;;;-2.65;100.00;94565.06;10532758;28;1951;-70
2022/12/15 06:04:07;;;;;;;;;;;;;;;-2.69;100.00;94554.16;10548293;28;2002;-71
2022/12/15 06:09:11;;;;;;;;;;;;;;;-2.86;100.00;94580.28;10533742;28;1954;-70
2022/12/15 06:14:14;;;;;;;;;;;;;;;-2.74;100.00;94588.22;10519109;28;1997;-68
2022/12/15 06:19:25;;;;;;;;;;;;;;;-2.60;100.00;94596.78;10522784;28;1970;-73
2022/12/15 06:24:29;;;;;;;;;;;;;;;-2.58;100.00;94605.25;10502959;28;1919;-71
2022/12/15 06:29:32;;;;;;;;;;;;;;;-2.54;100.00;94616.94;10520179;28;2082;-70
2022/12/15 06:34:35;;;;;;;;;;;;;;;-2.65;100.00;94613.22;10520134;28;2004;-69
2022/12/15 06:39:39;;;;;;;;;;;;;;;-2.70;100.00;94607.81;10523120;28;1930;-70
2022/12/15 06:44:42;;;;;;;;;;;;;;;-2.78;100.00;94619.44;10518843;28;1852;-71
2022/12/15 06:49:45;;;;;;;;;;;;;;;-2.68;100.00;94628.63;10520485;28;1954;-68
2022/12/15 06:54:48;;;;;;;;;;;;;;;-2.70;100.00;94641.19;10527405;28;1819;-69
2022/12/15 06:59:51;;;;;;;;;;;;;;;-2.66;100.00;94631.84;10522429;28;1909;-69
2022/12/15 07:04:59;;;;;;;;;;;;;;;-2.67;100.00;94646.00;10525135;28;1967;-69
2022/12/15 07:10:03;;;;;;;;;;;;;;;-2.70;100.00;94631.47;10537323;28;1927;-69
2022/12/15 07:15:06;;;;;;;;;;;;;;;-2.57;100.00;94644.47;10526022;28;2105;-68
2022/12/15 07:20:10;;;;;;;;;;;;;;;-2.61;100.00;94648.59;10509797;28;1935;-69
2022/12/15 07:25:14;;;;;;;;;;;;;;;-2.72;100.00;94644.06;10514389;28;2012;-72
2022/12/15 07:30:17;;;;;;;;;;;;;;;-2.64;100.00;94650.84;10526618;28;1914;-68
2022/12/15 07:35:30;;;;;;;;;;;;;;;-2.61;100.00;94655.66;10509728;28;2014;-68
2022/12/15 07:40:34;;;;;;;;;;;;;;;-2.58;100.00;94656.03;10517206;28;2001;-72
2022/12/15 07:45:37;;;;;;;;;;;;;;;-2.33;100.00;94632.28;10515234;28;1958;-72
2022/12/15 07:50:40;;;;;;;;;;;;;;;-2.60;100.00;94629.16;10516769;28;2109;-71
2022/12/15 07:55:43;;;;;;;;;;;;;;;-2.30;100.00;94638.91;10519477;28;1989;-73
2022/12/15 08:01:07;;;;;;;;;;;;;;;-2.45;100.00;94629.56;10517979;28;1970;-71
2022/12/15 08:06:10;;;;;;;;;;;;;;;-2.65;100.00;94623.75;10527864;28;1927;-72
2022/12/15 08:11:15;;;;;;;;;;;;;;;-2.38;100.00;94634.75;10515819;28;1910;-73
2022/12/15 08:16:18;;;;;;;;;;;;;;;-2.37;100.00;94652.16;10533745;28;1471;-70
2022/12/15 08:21:21;;;;;;;;;;;;;;;-2.17;100.00;94668.50;10519866;28;1935;-69
2022/12/15 08:26:24;;;;;;;;;;;;;;;-2.27;100.00;94657.72;10520097;28;1837;-69
2022/12/15 08:31:33;;;;;;;;;;;;;;;-2.15;100.00;94670.13;10508715;28;1906;-69
2022/12/15 08:36:37;;;;;;;;;;;;;;;-2.16;100.00;94698.28;10502503;28;1943;-69
2022/12/15 08:41:41;;;;;;;;;;;;;;;-2.18;100.00;94701.13;10526240;28;1907;-70
2022/12/15 08:46:44;;;;;;;;;;;;;;;-1.86;100.00;94695.69;10513482;28;2035;-68
2022/12/15 08:51:47;;;;;;;;;;;;;;;-1.73;100.00;94700.75;10521076;28;2124;-70
2022/12/15 08:56:52;;;;;;;;;;;;;;;-1.45;100.00;94707.28;10521237;28;2065;-71
2022/12/15 09:01:55;;;;;;;;;;;;;;;-1.51;100.00;94719.53;10502225;28;2188;-68
2022/12/15 09:07:00;;;;;;;;;;;;;;;-1.47;100.00;94711.97;10462562;28;2040;-69
2022/12/15 09:12:03;;;;;;;;;;;;;;;-1.30;100.00;94712.94;10496036;28;1910;-68
2022/12/15 09:17:06;;;;;;;;;;;;;;;-1.74;100.00;94714.16;10493433;28;1365;-70
2022/12/15 09:22:17;;;;;;;;;;;;;;;-1.62;100.00;94686.03;10494307;28;1347;-70
2022/12/15 09:27:20;;;;;;;;;;;;;;;-1.75;100.00;94676.47;10479379;28;1969;-69
2022/12/15 09:32:24;;;;;;;;;;;;;;;-1.86;100.00;94671.16;10483248;28;1961;-67
2022/12/15 09:37:29;;;;;;;;;;;;;;;-1.54;100.00;94669.91;10483845;28;1976;-70
2022/12/15 09:42:32;;;;;;;;;;;;;;;-1.50;100.00;94672.91;10474294;28;2079;-72
2022/12/15 09:47:37;;;;;;;;;;;;;;;-1.57;100.00;94656.38;10485944;28;1940;-69
2022/12/15 09:52:40;;;;;;;;;;;;;;;-1.50;100.00;94662.34;10479701;28;1917;-68
2022/12/15 09:57:43;;;;;;;;;;;;;;;-1.38;100.00;94661.34;10486916;28;2118;-72
2022/12/15 10:02:50;;;;;;;;;;;;;;;-1.38;100.00;94664.00;10483470;28;2150;-69
2022/12/15 10:07:54;;;;;;;;;;;;;;;-0.98;100.00;94639.59;10529638;28;2156;-69
2022/12/15 10:12:57;;;;;;;;;;;;;;;-1.23;100.00;94628.47;10516059;28;2136;-69
2022/12/15 10:18:21;;;;;;;;;;;;;;;-0.84;100.00;94629.63;10523994;28;1916;-68
2022/12/15 10:23:24;;;;;;;;;;;;;;;-0.89;100.00;94621.59;10517005;28;2062;-68
2022/12/15 10:28:27;;;;;;;;;;;;;;;-0.83;100.00;94633.84;10517555;28;1962;-67
2022/12/15 10:33:30;;;;;;;;;;;;;;;-1.02;100.00;94624.47;10527126;28;1986;-71
2022/12/15 10:38:36;;;;;;;;;;;;;;;-0.83;100.00;94625.94;10511079;28;2187;-68
2022/12/15 10:43:39;;;;;;;;;;;;;;;-0.69;100.00;94637.88;10518176;28;1974;-67
2022/12/15 10:48:44;;;;;;;;;;;;;;;-0.85;100.00;94620.09;10524963;28;1993;-69
2022/12/15 10:53:51;;;;;;;;;;;;;;;-0.73;100.00;94615.63;10519282;28;1914;-67
2022/12/15 10:58:54;;;;;;;;;;;;;;;-0.89;100.00;94603.13;10522320;28;2068;-69
2022/12/15 11:03:57;;;;;;;;;;;;;;;-1.13;100.00;94579.41;10518691;28;2097;-69
2022/12/15 11:09:00;;;;;;;;;;;;;;;-1.21;100.00;94585.03;10525787;28;1732;-69
2022/12/15 11:14:04;;;;;;;;;;;;;;;-0.99;100.00;94602.91;10522273;28;1958;-69
2022/12/15 11:19:07;;;;;;;;;;;;;;;-1.09;100.00;94585.00;10515914;28;2164;-68
2022/12/15 11:24:11;;;;;;;;;;;;;;;-1.10;100.00;94583.41;10516541;28;1938;-68
2022/12/15 11:29:14;;;;;;;;;;;;;;;-1.02;100.00;94563.78;10529126;28;1891;-69
2022/12/15 11:34:17;;;;;;;;;;;;;;;-0.74;100.00;94574.44;10513587;28;2100;-76
2022/12/15 11:39:20;;;;;;;;;;;;;;;-0.64;100.00;94553.50;10533760;28;2081;-68
2022/12/15 11:44:24;;;;;;;;;;;;;;;-0.89;100.00;94560.91;10521640;28;1940;-69
2022/12/15 11:49:27;;;;;;;;;;;;;;;-1.06;100.00;94576.66;10520317;28;1951;-69
2022/12/15 11:54:30;;;;;;;;;;;;;;;-1.06;100.00;94579.28;10517485;28;1986;-69
2022/12/15 11:59:33;;;;;;;;;;;;;;;-1.27;100.00;94580.69;10519422;28;2081;-70
2022/12/15 12:04:37;;;;;;;;;;;;;;;-1.40;100.00;94591.41;10519755;28;1922;-68
2022/12/15 12:09:40;;;;;;;;;;;;;;;-1.26;100.00;94590.19;10509649;28;2026;-69
2022/12/15 12:14:43;;;;;;;;;;;;;;;-1.23;100.00;94578.38;10520451;28;1966;-70
2022/12/15 12:19:52;;;;;;;;;;;;;;;-1.29;100.00;94553.72;10517512;28;1919;-69
2022/12/15 12:24:57;;;;;;;;;;;;;;;-1.37;100.00;94519.81;10525863;28;1760;-70
2022/12/15 12:30:00;;;;;;;;;;;;;;;-1.18;100.00;94512.56;10511858;28;1974;-68
2022/12/15 12:35:03;;;;;;;;;;;;;;;-1.44;100.00;94501.47;10512473;28;1974;-70
2022/12/15 12:40:30;;;;;;;;;;;;;;;-1.58;100.00;94499.31;10512172;28;2077;-69
2022/12/15 12:45:33;;;;;;;;;;;;;;;-1.54;100.00;94490.69;10503605;28;2037;-70
2022/12/15 12:50:36;;;;;;;;;;;;;;;-1.72;100.00;94493.44;10510974;28;2076;-69
2022/12/15 12:55:39;;;;;;;;;;;;;;;-1.73;100.00;94502.38;10514979;28;2058;-69
2022/12/15 13:00:42;;;;;;;;;;;;;;;-1.72;100.00;94502.16;10522095;28;1981;-70
2022/12/15 13:05:46;;;;;;;;;;;;;;;-1.83;100.00;94508.22;10512580;28;1986;-69
2022/12/15 13:10:53;;;;;;;;;;;;;;;-1.76;100.00;94510.75;10513314;28;1927;-69
2022/12/15 13:15:56;;;;;;;;;;;;;;;-1.86;100.00;94521.03;10506686;28;2007;-72
2022/12/15 13:20:59;;;;;;;;;;;;;;;-1.83;100.00;94520.59;10499052;28;1962;-69
2022/12/15 13:26:02;;;;;;;;;;;;;;;-1.82;100.00;94530.88;10508322;28;1913;-68
2022/12/15 13:31:05;;;;;;;;;;;;;;;-2.07;100.00;94517.09;10520201;28;1957;-68
2022/12/15 13:36:09;;;;;;;;;;;;;;;-2.19;100.00;94496.00;10514310;28;2100;-69
2022/12/15 13:41:12;;;;;;;;;;;;;;;-2.17;100.00;94480.78;10513110;28;1998;-70
2022/12/15 13:46:15;;;;;;;;;;;;;;;-2.20;100.00;94471.50;10528733;28;1978;-68
2022/12/15 13:51:25;;;;;;;;;;;;;;;-2.27;100.00;94477.91;10518706;28;1965;-69
2022/12/15 13:56:29;;;;;;;;;;;;;;;-2.22;100.00;94481.47;10503743;28;1892;-70
2022/12/15 14:01:32;;;;;;;;;;;;;;;-2.20;100.00;94484.69;10524308;28;2030;-70
2022/12/15 14:06:36;;;;;;;;;;;;;;;-2.23;100.00;94479.88;10511469;28;1919;-70
2022/12/15 14:11:39;;;;;;;;;;;;;;;-2.26;100.00;94480.31;10517714;28;1922;-68
2022/12/15 14:16:56;;;;;;;;;;;;;;;-2.33;100.00;94474.34;10538586;28;2844;-70
2022/12/15 14:22:00;;;;;;;;;;;;;;;-2.38;100.00;94471.59;10512663;28;1911;-71
2022/12/15 14:27:04;;;;;;;;;;;;;;;-2.22;100.00;94480.69;10526733;28;1958;-70
2022/12/15 14:32:07;;;;;;;;;;;;;;;-2.25;100.00;94481.91;10519148;28;2076;-70
2022/12/15 14:37:11;;;;;;;;;;;;;;;-2.21;100.00;94462.03;10524530;28;1915;-71
2022/12/15 14:42:14;;;;;;;;;;;;;;;-2.31;100.00;94455.69;10512723;28;2066;-71
2022/12/15 14:47:17;;;;;;;;;;;;;;;-2.27;100.00;94451.59;10525633;28;1993;-73
2022/12/15 14:52:20;;;;;;;;;;;;;;;-2.36;100.00;94451.09;10518266;28;2078;-70
2022/12/15 14:57:23;;;;;;;;;;;;;;;-2.35;100.00;94450.09;10503494;28;1943;-71
2022/12/15 15:02:27;;;;;;;;;;;;;;;-2.20;100.00;94447.03;10523447;28;2061;-70
2022/12/15 15:07:30;;;;;;;;;;;;;;;-2.18;100.00;94429.97;10520530;28;2085;-71
2022/12/15 15:12:33;;;;;;;;;;;;;;;-2.34;100.00;94441.16;10515795;28;2263;-70
2022/12/15 15:17:36;;;;;;;;;;;;;;;-2.36;100.00;94443.19;10514690;28;1970;-69
2022/12/15 15:22:39;;;;;;;;;;;;;;;-2.41;100.00;94437.84;10507726;28;2038;-71
2022/12/15 15:27:43;;;;;;;;;;;;;;;-2.38;100.00;94440.00;10514046;28;2058;-70
2022/12/15 15:32:46;;;;;;;;;;;;;;;-2.42;100.00;94438.84;10511062;28;1985;-69
2022/12/15 15:37:49;;;;;;;;;;;;;;;-2.29;100.00;94437.84;10510601;28;1914;-69
2022/12/15 15:42:52;;;;;;;;;;;;;;;-2.26;100.00;94440.03;10519662;28;2103;-69
2022/12/15 15:47:56;;;;;;;;;;;;;;;-2.34;100.00;94430.63;10516106;28;2025;-70
2022/12/15 15:52:59;;;;;;;;;;;;;;;-2.32;100.00;94430.41;10508835;28;1940;-68
2022/12/15 15:58:02;;;;;;;;;;;;;;;-2.34;100.00;94430.63;10513081;28;1907;-70
2022/12/15 16:03:05;;;;;;;;;;;;;;;-2.29;100.00;94430.78;10510026;28;2064;-71
2022/12/15 16:08:09;;;;;;;;;;;;;;;-2.20;100.00;94432.03;10509841;28;2062;-70
2022/12/15 16:13:12;;;;;;;;;;;;;;;-2.17;100.00;94421.03;10514047;28;1911;-68
2022/12/15 16:18:19;;;;;;;;;;;;;;;-2.19;100.00;94407.31;10515089;28;1927;-69
2022/12/15 16:23:22;;;;;;;;;;;;;;;-2.29;100.00;94412.34;10511216;28;1937;-70
2022/12/15 16:28:25;;;;;;;;;;;;;;;-2.18;100.00;94398.38;10521649;28;2015;-69
2022/12/15 16:33:29;;;;;;;;;;;;;;;-2.25;100.00;94408.22;10515231;28;2069;-69
2022/12/15 16:38:32;;;;;;;;;;;;;;;-2.11;100.00;94410.63;10518690;28;2064;-71
2022/12/15 16:43:36;;;;;;;;;;;;;;;-2.11;100.00;94419.31;10521202;28;1986;-69
2022/12/15 16:48:48;;;;;;;;;;;;;;;-2.08;100.00;94403.09;10509722;28;1959;-70
2022/12/15 16:53:53;;;;;;;;;;;;;;;-2.30;100.00;94402.81;10494712;28;2037;-69
2022/12/15 16:58:58;;;;;;;;;;;;;;;-2.23;100.00;94403.53;10516035;28;2082;-69
2022/12/15 17:04:21;;;;;;;;;;;;;;;-2.46;100.00;94395.59;10523675;28;2031;-70
2022/12/15 17:09:24;;;;;;;;;;;;;;;-2.39;100.00;94382.34;10528447;28;2029;-70
2022/12/15 17:14:28;;;;;;;;;;;;;;;-2.31;100.00;94385.44;10520377;28;1918;-71
2022/12/15 17:19:31;;;;;;;;;;;;;;;-2.28;100.00;94377.09;10517407;28;1940;-70
2022/12/15 17:24:34;;;;;;;;;;;;;;;-2.25;100.00;94379.25;10527184;28;1919;-71
2022/12/15 17:29:37;;;;;;;;;;;;;;;-2.26;100.00;94375.03;10523395;28;2101;-70
2022/12/15 17:34:40;;;;;;;;;;;;;;;-2.22;100.00;94359.59;10523852;28;1906;-70
2022/12/15 17:39:49;;;;;;;;;;;;;;;-2.22;100.00;94362.22;10528343;28;1939;-69
2022/12/15 17:44:53;;;;;;;;;;;;;;;-2.21;100.00;94355.91;10518993;28;1900;-69
2022/12/15 17:49:56;;;;;;;;;;;;;;;-2.37;100.00;94362.66;10520309;28;1946;-70
2022/12/15 17:54:59;;;;;;;;;;;;;;;-2.37;100.00;94346.06;10522649;28;1999;-71
2022/12/15 18:00:02;;;;;;;;;;;;;;;-2.41;100.00;94348.38;10523669;28;1974;-71
2022/12/15 18:05:06;;;;;;;;;;;;;;;-2.42;100.00;94359.09;10523713;28;2102;-69
2022/12/15 18:10:09;;;;;;;;;;;;;;;-2.39;100.00;94351.56;10524904;28;1955;-69
2022/12/15 18:15:12;;;;;;;;;;;;;;;-2.38;100.00;94340.00;10524729;28;2050;-70
2022/12/15 18:20:16;;;;;;;;;;;;;;;-2.41;100.00;94337.84;10519775;28;1913;-72
2022/12/15 18:25:19;;;;;;;;;;;;;;;-2.50;100.00;94331.28;10521828;28;1970;-73
2022/12/15 18:30:23;;;;;;;;;;;;;;;-2.38;100.00;94311.06;10529173;28;1888;-69
2022/12/15 18:35:26;;;;;;;;;;;;;;;-2.46;100.00;94316.66;10517292;28;2054;-71
2022/12/15 18:40:29;;;;;;;;;;;;;;;-2.34;100.00;94314.03;10519023;28;2062;-71
2022/12/15 18:45:32;;;;;;;;;;;;;;;-2.35;100.00;94307.97;10526097;28;1958;-70
2022/12/15 18:50:35;;;;;;;;;;;;;;;-2.40;100.00;94318.38;10530229;28;1947;-70
2022/12/15 18:55:38;;;;;;;;;;;;;;;-2.35;100.00;94297.44;10522502;28;1914;-72
2022/12/15 19:00:41;;;;;;;;;;;;;;;-2.22;100.00;94286.69;10519736;28;1946;-69
2022/12/15 19:05:45;;;;;;;;;;;;;;;-2.33;100.00;94269.06;10514287;28;2078;-70
2022/12/15 19:10:51;;;;;;;;;;;;;;;-2.26;100.00;94269.75;10523408;28;1994;-70
2022/12/15 19:15:54;;;;;;;;;;;;;;;-2.23;100.00;94274.56;10523324;28;1927;-70
2022/12/15 19:26:28;;;;;;;;;;;;;;;-2.07;100.00;94266.97;10510183;28;1987;-69
2022/12/15 19:31:31;;;;;;;;;;;;;;;-2.04;100.00;94269.13;10504725;28;2002;-70
2022/12/15 19:36:35;;;;;;;;;;;;;;;-2.06;100.00;94258.03;10503245;28;1983;-69
2022/12/15 19:41:39;;;;;;;;;;;;;;;-2.10;100.00;94248.97;10519773;28;2108;-69
2022/12/15 19:46:42;;;;;;;;;;;;;;;-1.96;100.00;94248.50;10506657;28;1927;-70
2022/12/15 19:51:45;;;;;;;;;;;;;;;-1.98;100.00;94247.13;10501873;28;1903;-70
2022/12/15 19:56:48;;;;;;;;;;;;;;;-2.05;100.00;94241.19;10503737;28;1923;-72
2022/12/15 20:01:51;;;;;;;;;;;;;;;-1.88;100.00;94231.53;10517713;28;1986;-70
2022/12/15 20:06:55;;;;;;;;;;;;;;;-1.86;100.00;94213.66;10531035;28;1234;-69
2022/12/15 20:11:59;;;;;;;;;;;;;;;-1.74;100.00;94206.50;10506872;28;1400;-70
2022/12/15 20:17:02;;;;;;;;;;;;;;;-1.87;100.00;94200.72;10529906;28;1993;-70
2022/12/15 20:22:06;;;;;;;;;;;;;;;-1.72;100.00;94201.84;10507926;28;1959;-70
2022/12/15 20:27:09;;;;;;;;;;;;;;;-1.69;100.00;94184.75;10516467;28;1904;-70
2022/12/15 20:32:14;;;;;;;;;;;;;;;-1.56;100.00;94186.28;10499284;28;2106;-69
2022/12/15 20:37:17;;;;;;;;;;;;;;;-1.49;100.00;94189.56;10514661;28;1963;-71
2022/12/15 20:42:21;;;;;;;;;;;;;;;-1.43;100.00;94188.63;10524379;28;1861;-71
2022/12/15 20:47:24;;;;;;;;;;;;;;;-1.28;100.00;94175.69;10531759;28;1865;-72
2022/12/15 20:52:27;;;;;;;;;;;;;;;-1.21;100.00;94171.09;10534932;28;1970;-76
2022/12/15 20:57:30;;;;;;;;;;;;;;;-1.22;100.00;94166.81;10548321;27;2099;-74
2022/12/15 21:02:33;;;;;;;;;;;;;;;-1.33;100.00;94164.28;10526465;28;1982;-73
2022/12/15 21:07:36;;;;;;;;;;;;;;;-1.29;100.00;94158.28;10514981;28;1967;-74
2022/12/15 21:12:40;;;;;;;;;;;;;;;-1.30;100.00;94167.22;10531376;28;2027;-69
2022/12/15 21:17:44;;;;;;;;;;;;;;;-1.18;100.00;94149.50;10531717;28;1981;-70
2022/12/15 21:22:47;;;;;;;;;;;;;;;-1.18;100.00;94152.13;10527058;28;1881;-70
2022/12/15 21:27:50;;;;;;;;;;;;;;;-1.20;100.00;94156.84;10532574;28;2005;-68
2022/12/15 21:32:53;;;;;;;;;;;;;;;-1.20;100.00;94146.31;10534341;28;1947;-71
2022/12/15 21:37:56;;;;;;;;;;;;;;;-1.10;100.00;94143.81;10535301;28;1989;-70
2022/12/15 21:42:59;;;;;;;;;;;;;;;-1.10;100.00;94150.91;10541135;28;1362;-76
2022/12/15 21:53:26;;;;;;;;;;;;;;;-1.02;100.00;94157.63;10522628;28;1984;-76
2022/12/15 21:58:29;;;;;;;;;;;;;;;-1.01;100.00;94148.69;10520586;28;2053;-69
2022/12/15 22:03:33;;;;;;;;;;;;;;;-0.99;100.00;94143.97;10525173;28;1907;-70
2022/12/15 22:08:36;;;;;;;;;;;;;;;-0.97;100.00;94149.78;10521423;28;1995;-70
2022/12/15 22:13:39;;;;;;;;;;;;;;;-0.96;100.00;94161.94;10521919;28;1984;-69
2022/12/15 22:18:42;;;;;;;;;;;;;;;-0.98;100.00;94153.47;10527737;28;1998;-69
2022/12/15 22:23:46;;;;;;;;;;;;;;;-0.93;100.00;94157.00;10506629;28;1970;-69
2022/12/15 22:28:50;;;;;;;;;;;;;;;-0.84;100.00;94154.72;10518709;28;1902;-70
2022/12/15 22:33:54;;;;;;;;;;;;;;;-0.90;100.00;94153.84;10523594;28;1959;-70
2022/12/15 22:38:57;;;;;;;;;;;;;;;-0.82;100.00;94152.66;10516164;28;2179;-71
2022/12/15 22:44:07;;;;;;;;;;;;;;;-0.84;100.00;94139.69;10528269;28;1872;-72
2022/12/15 22:49:11;;;;;;;;;;;;;;;-0.89;100.00;94130.91;10527596;28;1945;-72
2022/12/15 22:54:14;;;;;;;;;;;;;;;-0.83;100.00;94114.94;10521065;28;1963;-72
2022/12/15 22:59:17;;;;;;;;;;;;;;;-0.84;100.00;94115.16;10523122;28;2043;-72
2022/12/15 23:04:21;;;;;;;;;;;;;;;-0.85;100.00;94111.72;10521411;28;1919;-73
2022/12/15 23:09:24;;;;;;;;;;;;;;;-0.82;100.00;94094.63;10509198;28;2137;-73
2022/12/15 23:19:44;;;;;;;;;;;;;;;-0.83;100.00;94093.00;10522124;28;1911;-72
2022/12/15 23:24:47;;;;;;;;;;;;;;;-0.88;100.00;94095.59;10520418;28;1946;-72
2022/12/15 23:29:51;;;;;;;;;;;;;;;-0.83;100.00;94091.19;10522827;28;1912;-76
2022/12/15 23:34:54;;;;;;;;;;;;;;;-0.84;100.00;94094.06;10520773;28;1987;-72
2022/12/15 23:39:57;;;;;;;;;;;;;;;-0.88;100.00;94090.34;10523263;28;1955;-72
2022/12/15 23:45:01;;;;;;;;;;;;;;;-0.90;100.00;94092.41;10521796;28;1974;-73
2022/12/15 23:50:04;;;;;;;;;;;;;;;-0.96;100.00;94109.19;10511619;28;1954;-74
2022/12/15 23:55:08;;;;;;;;;;;;;;;-0.96;100.00;94119.75;10492445;28;1915;-72
